Historique des mesures à Cassis (13260), France
Quotidien Résumé Fevrier 13, 2018 Unités:  US    Métrique   Métrique/US
« Précédent (Jour)
Suivant (Jour) »
Quotidien Hebdomadaire Mensuel Annuel Période au choix
  Maximum: Minimum: Moyenne:
Température: 32 °F 37.6 °F 42.3 °F
Point de rosée: 32 °F 18 °F 22.6 °F
Humidité: Humidity % 35 % 42 %
Vitesse du vent: WindSpeedKMH mph 0.0 mph 5.3 mph
Rafales: WindSpeedGustKMH mph - -
Vent:- - WSW
Pression: 0 in 29.8 in -
Précipitations: 0 in    
Historical Graphs
 
 
Mesures pour : Fevrier 13, 2018
Heure Temperature Point de rosée Pression Vent Vitesse du vent Rafales Humidité Pluie (par heure) Conditions
32 °F 32 °F 0 in Calm     Humidity % 0 in SoftwareType W/m2
00:12 39.9 °F 23.2 °F 29.8 in NW 15.8 mph 15.8 mph 51 % 0 in open2300-1.11 W/m2
01:12 39.4 °F 23.2 °F 29.8 in WNW 15.8 mph 18.3 mph 52 % 0 in open2300-1.11 W/m2
02:12 37.9 °F 22.6 °F 29.8 in Calm   4.7 mph 54 % 0 in open2300-1.11 W/m2
03:12 37.6 °F 21.6 °F 29.8 in WNW 12.2 mph 15.8 mph 52 % 0 in open2300-1.11 W/m2
04:12 39.4 °F 19.6 °F 29.8 in NNW 4.0 mph 7.2 mph 45 % 0 in open2300-1.11 W/m2
05:12 39.7 °F 18.9 °F 29.8 in WNW 6.1 mph 18.0 mph 43 % 0 in open2300-1.11 W/m2
06:12 39.4 °F 18.7 °F 29.8 in NNW 1.4 mph 3.2 mph 43 % 0 in open2300-1.11 W/m2
07:12 38.8 °F 18.1 °F 29.8 in NW 4.3 mph 4.3 mph 43 % 0 in open2300-1.11 W/m2
08:12 37.6 °F 18 °F 29.8 in North 1.4 mph 4.0 mph 45 % 0 in open2300-1.11 W/m2
09:12 41.5 °F 19.9 °F 29.9 in Calm   3.5 mph 42 % 0 in open2300-1.11 W/m2
10:12 42.1 °F 19.6 °F 29.8 in North 4.3 mph 16.3 mph 40 % 0 in open2300-1.11 W/m2
11:12 46.6 °F 24.1 °F 29.9 in ESE 3.2 mph 6.4 mph 41 % 0 in open2300-1.11 W/m2
12:12 49.1 °F 25.2 °F 29.8 in Calm   6.8 mph 39 % 0 in open2300-1.11 W/m2
13:12 49.3 °F 25.3 °F 29.8 in South 6.1 mph 7.2 mph 39 % 0 in open2300-1.11 W/m2
14:12 46.8 °F 24.3 °F 29.8 in NW 25.3 mph 25.3 mph 41 % 0 in open2300-1.11 W/m2
15:12 47.3 °F 24.3 °F 29.8 in North 1.8 mph 8.7 mph 40 % 0 in open2300-1.11 W/m2
16:12 46.9 °F 20.5 °F 29.8 in West 9.0 mph 9.3 mph 35 % 0 in open2300-1.11 W/m2
17:12 46 °F 25.2 °F 29.8 in Calm     44 % 0 in open2300-1.11 W/m2
18:12 45.3 °F 25.5 °F 29.8 in Calm     46 % 0 in open2300-1.11 W/m2
19:12 45.1 °F 24.4 °F 29.8 in NNW 1.4 mph 2.1 mph 44 % 0 in open2300-1.11 W/m2
20:12 43.7 °F 24.3 °F 29.8 in Calm     46 % 0 in open2300-1.11 W/m2
21:12 43 °F 23 °F 29.8 in Calm   1.4 mph 45 % 0 in open2300-1.11 W/m2
22:12 42.6 °F 23.2 °F 29.8 in WNW 14.0 mph 14.0 mph 46 % 0 in open2300-1.11 W/m2
23:12 41.5 °F 21.6 °F 29.8 in NNW 7.2 mph 12.2 mph 45 % 0 in open2300-1.11 W/m2
Observations météo à CASSIS
WU-History script by Weather Underground - 1 mb